Time;durP1;ratioP1;P1;durP2;ratioP2;P2;SDS_P1;SDS_P2;PMS_P1;PMS_P2;Temp;Humidity;BMP_temperature;BMP_pressure;BME280_temperature;BME280_humidity;BME280_pressure;Samples;Min_cycle;Max_cycle;Signal;HPM_P1;HPM_P2
2022/06/01 00:01:57;;;;;;;27.13;19.50;;;;;;;;;;5089145;28;20020;-72
2022/06/01 00:04:24;;;;;;;19.58;12.50;;;;;;;;;;5114017;28;20098;-75
2022/06/01 00:06:57;;;;;;;16.08;9.82;;;;;;;;;;5105701;28;20035;-74
2022/06/01 00:09:23;;;;;;;13.52;9.85;;;;;;;;;;5074898;28;20466;-74
2022/06/01 00:11:49;;;;;;;13.27;9.35;;;;;;;;;;5073378;28;20121;-73
2022/06/01 00:14:15;;;;;;;15.15;9.35;;;;;;;;;;5090862;28;20024;-74
2022/06/01 00:16:42;;;;;;;13.63;9.88;;;;;;;;;;5091626;28;20032;-74
2022/06/01 00:19:08;;;;;;;13.48;8.80;;;;;;;;;;5093692;28;20362;-74
2022/06/01 00:22:11;;;;;;;10.23;7.47;;;;;;;;;;5094613;28;20024;-74
2022/06/01 00:24:21;;;;;;;9.50;7.18;;;;;;;;;;5084879;28;20401;-74
2022/06/01 00:26:49;;;;;;;10.45;7.00;;;;;;;;;;5073485;28;20032;-74
2022/06/01 00:29:15;;;;;;;11.88;7.07;;;;;;;;;;5099068;28;20032;-74
2022/06/01 00:31:41;;;;;;;12.10;6.75;;;;;;;;;;5093169;28;20043;-74
2022/06/01 00:34:07;;;;;;;11.23;6.65;;;;;;;;;;5102159;28;20481;-74
2022/06/01 00:36:34;;;;;;;13.15;6.50;;;;;;;;;;5072854;28;20056;-74
2022/06/01 00:39:00;;;;;;;12.98;6.70;;;;;;;;;;5089381;28;20095;-74
2022/06/01 00:41:29;;;;;;;11.43;6.22;;;;;;;;;;5093247;28;20031;-73
2022/06/01 00:44:00;;;;;;;6.93;4.85;;;;;;;;;;5102999;28;20161;-75
2022/06/01 00:46:26;;;;;;;12.63;4.88;;;;;;;;;;5073718;28;20028;-74
2022/06/01 00:48:55;;;;;;;5.65;3.88;;;;;;;;;;5097246;28;20019;-74
2022/06/01 00:51:24;;;;;;;6.45;4.40;;;;;;;;;;5113587;28;20401;-74
2022/06/01 00:53:53;;;;;;;5.95;3.38;;;;;;;;;;5116696;28;20491;-75
2022/06/01 00:56:21;;;;;;;7.13;3.50;;;;;;;;;;5057286;28;20039;-74
2022/06/01 00:58:51;;;;;;;5.18;3.00;;;;;;;;;;5080504;28;20137;-75
2022/06/01 01:01:18;;;;;;;7.78;3.95;;;;;;;;;;5055207;28;20137;-74
2022/06/01 01:03:52;;;;;;;9.82;5.32;;;;;;;;;;5088091;28;20381;-74
2022/06/01 01:06:28;;;;;;;10.93;5.30;;;;;;;;;;5092092;28;20035;-74
2022/06/01 01:08:55;;;;;;;7.45;4.35;;;;;;;;;;5088188;28;20381;-74
2022/06/01 01:11:25;;;;;;;7.03;3.65;;;;;;;;;;5093352;28;20123;-74
2022/06/01 01:13:53;;;;;;;5.53;3.58;;;;;;;;;;5084103;28;20024;-74
2022/06/01 01:16:25;;;;;;;7.70;3.50;;;;;;;;;;5096684;28;20028;-74
2022/06/01 01:18:54;;;;;;;5.93;2.63;;;;;;;;;;5073539;28;20504;-74
2022/06/01 01:21:40;;;;;;;5.43;2.78;;;;;;;;;;5085470;28;20481;-73
2022/06/01 01:24:25;;;;;;;8.43;2.90;;;;;;;;;;5104711;28;20047;-74
2022/06/01 01:26:52;;;;;;;4.53;2.85;;;;;;;;;;5072673;28;20032;-74
2022/06/01 01:29:38;;;;;;;4.60;2.97;;;;;;;;;;5082337;28;20020;-74
2022/06/01 01:32:06;;;;;;;5.05;2.83;;;;;;;;;;5090143;28;20055;-74
2022/06/01 01:34:32;;;;;;;4.85;2.88;;;;;;;;;;5089278;28;20145;-73
2022/06/01 01:37:01;;;;;;;8.48;3.00;;;;;;;;;;5092985;28;20051;-74
2022/06/01 01:39:30;;;;;;;5.93;3.05;;;;;;;;;;5094450;28;20020;-73
2022/06/01 01:41:57;;;;;;;6.00;2.92;;;;;;;;;;5088327;28;20075;-74
2022/06/01 01:44:25;;;;;;;11.65;6.13;;;;;;;;;;5076239;28;20013;-74
2022/06/01 01:46:52;;;;;;;13.68;8.20;;;;;;;;;;5101869;28;20028;-73
2022/06/01 01:49:21;;;;;;;14.23;9.65;;;;;;;;;;5062768;28;20082;-74
2022/06/01 01:51:47;;;;;;;12.35;9.30;;;;;;;;;;5096431;28;20036;-73
2022/06/01 01:54:27;;;;;;;17.98;11.13;;;;;;;;;;5096226;28;20137;-74
2022/06/01 01:57:03;;;;;;;17.20;10.60;;;;;;;;;;5094555;28;20024;-74
2022/06/01 01:59:37;;;;;;;15.40;10.82;;;;;;;;;;5105810;28;20040;-73
2022/06/01 02:02:19;;;;;;;13.50;8.82;;;;;;;;;;5090574;28;20019;-74
2022/06/01 02:07:53;;;;;;;15.85;10.30;;;;;;;;;;5102634;28;20035;-74
2022/06/01 02:13:04;;;;;;;14.15;10.30;;;;;;;;;;5110448;28;20066;-73
2022/06/01 02:15:35;;;;;;;11.50;8.57;;;;;;;;;;5095778;28;20031;-74
2022/06/01 02:18:07;;;;;;;14.32;8.75;;;;;;;;;;5089679;28;20112;-74
2022/06/01 02:20:35;;;;;;;11.50;8.73;;;;;;;;;;5076226;28;20067;-73
2022/06/01 02:23:07;;;;;;;11.93;9.35;;;;;;;;;;5101764;28;20493;-74
2022/06/01 02:25:33;;;;;;;10.70;7.30;;;;;;;;;;5109253;28;20484;-74
2022/06/01 02:28:00;;;;;;;12.32;7.97;;;;;;;;;;5080708;28;20043;-74
2022/06/01 02:30:33;;;;;;;12.20;8.02;;;;;;;;;;5093387;28;20031;-73
2022/06/01 02:33:00;;;;;;;12.35;7.57;;;;;;;;;;5096395;28;20390;-74
2022/06/01 02:35:30;;;;;;;10.75;7.15;;;;;;;;;;5115655;28;20079;-73
2022/06/01 02:37:58;;;;;;;12.88;7.00;;;;;;;;;;5100375;28;20493;-73
2022/06/01 02:40:25;;;;;;;8.88;5.93;;;;;;;;;;5089009;28;20036;-74
2022/06/01 02:42:52;;;;;;;9.93;6.20;;;;;;;;;;5087980;28;20066;-73
2022/06/01 02:45:20;;;;;;;8.95;5.30;;;;;;;;;;5091938;28;20035;-74
2022/06/01 02:47:46;;;;;;;8.40;5.68;;;;;;;;;;5094188;28;20028;-74
2022/06/01 02:50:16;;;;;;;13.48;5.60;;;;;;;;;;5092281;28;20024;-73
2022/06/01 02:52:45;;;;;;;6.63;5.10;;;;;;;;;;5088444;28;20043;-74
2022/06/01 02:55:12;;;;;;;9.63;5.45;;;;;;;;;;5099352;28;20048;-74
2022/06/01 02:57:40;;;;;;;10.52;4.90;;;;;;;;;;5115406;28;20023;-74
2022/06/01 03:00:17;;;;;;;11.45;5.22;;;;;;;;;;5099585;28;20035;-74
2022/06/01 03:02:43;;;;;;;7.47;4.90;;;;;;;;;;5096602;28;20022;-74
2022/06/01 03:05:12;;;;;;;7.90;5.18;;;;;;;;;;5095764;28;20016;-74
2022/06/01 03:20:21;;;;;;;12.05;6.78;;;;;;;;;;5077911;27;1443030;-74
2022/06/01 03:22:48;;;;;;;16.20;10.60;;;;;;;;;;5090744;28;20044;-74
2022/06/01 03:25:16;;;;;;;12.73;8.05;;;;;;;;;;5102871;28;20016;-74
2022/06/01 03:27:44;;;;;;;15.35;7.32;;;;;;;;;;5093126;28;20036;-74
2022/06/01 03:30:12;;;;;;;13.68;7.45;;;;;;;;;;5109473;28;20484;-74
2022/06/01 03:32:38;;;;;;;15.80;8.80;;;;;;;;;;5100055;28;20094;-74
2022/06/01 03:35:07;;;;;;;17.60;11.43;;;;;;;;;;5071578;28;20473;-73
2022/06/01 03:37:33;;;;;;;24.92;16.00;;;;;;;;;;5109472;28;20047;-74
2022/06/01 03:40:00;;;;;;;29.90;19.88;;;;;;;;;;5108035;28;20111;-74
2022/06/01 03:42:26;;;;;;;40.45;26.48;;;;;;;;;;5104130;28;20027;-73
2022/06/01 03:47:36;;;;;;;43.83;28.90;;;;;;;;;;5099794;28;20031;-74
2022/06/01 03:50:03;;;;;;;48.40;29.85;;;;;;;;;;5091278;28;20457;-74
2022/06/01 03:52:29;;;;;;;47.22;29.02;;;;;;;;;;5102227;28;20020;-73
2022/06/01 03:54:55;;;;;;;45.13;28.85;;;;;;;;;;5107664;28;20112;-74
2022/06/01 03:57:21;;;;;;;38.63;26.00;;;;;;;;;;5107883;28;20019;-74
2022/06/01 03:59:47;;;;;;;38.70;24.83;;;;;;;;;;5109561;28;20392;-74
2022/06/01 04:02:13;;;;;;;41.70;24.73;;;;;;;;;;5105262;28;20027;-74
2022/06/01 04:04:39;;;;;;;32.78;22.38;;;;;;;;;;5105669;28;20507;-74
2022/06/01 04:07:05;;;;;;;33.58;22.25;;;;;;;;;;5107963;28;20043;-73
2022/06/01 04:09:32;;;;;;;33.83;20.35;;;;;;;;;;5109224;28;20100;-74
2022/06/01 04:11:58;;;;;;;31.38;18.95;;;;;;;;;;5109160;28;20069;-73
2022/06/01 04:14:25;;;;;;;31.45;18.60;;;;;;;;;;5094006;28;21632;-73
2022/06/01 04:16:51;;;;;;;29.23;18.52;;;;;;;;;;5081166;28;20482;-74
2022/06/01 04:19:17;;;;;;;29.40;16.35;;;;;;;;;;5067858;28;20107;-72
2022/06/01 04:21:47;;;;;;;28.58;16.08;;;;;;;;;;5058576;28;20025;-73
2022/06/01 04:24:16;;;;;;;26.58;14.65;;;;;;;;;;5056509;28;20099;-73
2022/06/01 04:26:43;;;;;;;20.67;14.43;;;;;;;;;;5056234;28;20079;-73
2022/06/01 04:29:09;;;;;;;20.95;14.60;;;;;;;;;;5068743;28;20068;-72
2022/06/01 04:31:36;;;;;;;24.33;15.90;;;;;;;;;;5075305;28;20054;-73
2022/06/01 04:34:02;;;;;;;21.90;15.18;;;;;;;;;;5073862;28;20031;-71
2022/06/01 04:36:28;;;;;;;21.80;15.98;;;;;;;;;;5058385;28;20112;-73
2022/06/01 04:38:54;;;;;;;22.65;15.95;;;;;;;;;;5055019;28;20090;-72
2022/06/01 04:41:20;;;;;;;29.05;16.80;;;;;;;;;;5053141;28;20029;-72
2022/06/01 04:43:47;;;;;;;29.08;16.65;;;;;;;;;;5075190;28;20089;-73
2022/06/01 04:46:13;;;;;;;30.17;17.48;;;;;;;;;;5061094;28;20112;-73
2022/06/01 04:48:39;;;;;;;32.75;17.05;;;;;;;;;;5079324;28;20028;-73
2022/06/01 04:51:06;;;;;;;28.08;17.67;;;;;;;;;;5063746;28;20401;-72
2022/06/01 04:53:32;;;;;;;30.20;17.13;;;;;;;;;;5074357;28;20389;-72
2022/06/01 04:55:58;;;;;;;24.23;18.60;;;;;;;;;;5081995;28;20028;-73
2022/06/01 04:58:24;;;;;;;30.48;21.52;;;;;;;;;;5072385;28;20432;-73
2022/06/01 05:00:53;;;;;;;30.75;21.92;;;;;;;;;;5083665;28;20051;-72
2022/06/01 05:03:19;;;;;;;32.38;22.15;;;;;;;;;;5080388;28;20013;-72
2022/06/01 05:05:46;;;;;;;35.88;21.92;;;;;;;;;;5082161;28;20115;-73
2022/06/01 05:08:13;;;;;;;32.30;21.45;;;;;;;;;;5073539;28;20075;-73
2022/06/01 05:10:40;;;;;;;32.90;22.50;;;;;;;;;;5069283;28;20477;-74
2022/06/01 05:13:06;;;;;;;34.65;21.83;;;;;;;;;;5072018;28;20057;-73
2022/06/01 05:15:33;;;;;;;26.55;20.10;;;;;;;;;;5075705;28;20063;-76
2022/06/01 05:17:59;;;;;;;25.73;20.98;;;;;;;;;;5073566;28;20025;-73
2022/06/01 05:20:25;;;;;;;29.40;20.70;;;;;;;;;;5063297;28;20036;-73
2022/06/01 05:22:51;;;;;;;27.77;19.15;;;;;;;;;;5075540;28;20016;-73
2022/06/01 05:25:17;;;;;;;25.58;19.58;;;;;;;;;;5078657;28;20084;-73
2022/06/01 05:27:43;;;;;;;24.63;18.27;;;;;;;;;;5072905;28;20024;-73
2022/06/01 05:30:10;;;;;;;21.83;17.50;;;;;;;;;;5060712;28;20029;-74
2022/06/01 05:32:36;;;;;;;30.05;18.60;;;;;;;;;;5070933;28;20456;-75
2022/06/01 05:35:02;;;;;;;26.35;16.17;;;;;;;;;;5064025;28;20028;-79
2022/06/01 05:37:28;;;;;;;19.48;13.23;;;;;;;;;;5048129;28;20374;-75
2022/06/01 05:39:54;;;;;;;18.63;12.63;;;;;;;;;;5068025;28;20048;-71
2022/06/01 05:42:21;;;;;;;20.08;12.75;;;;;;;;;;5081613;28;20029;-74
2022/06/01 05:44:47;;;;;;;19.60;12.43;;;;;;;;;;5076810;28;20089;-76
2022/06/01 05:47:13;;;;;;;24.63;10.35;;;;;;;;;;5081052;28;20078;-75
2022/06/01 05:49:39;;;;;;;19.58;10.40;;;;;;;;;;5086377;28;20039;-73
2022/06/01 05:52:05;;;;;;;17.13;10.77;;;;;;;;;;5079191;28;20036;-89
2022/06/01 05:54:31;;;;;;;31.88;10.30;;;;;;;;;;5075553;28;20036;-80
2022/06/01 05:56:57;;;;;;;12.38;8.80;;;;;;;;;;5076512;28;20039;-78
2022/06/01 05:59:23;;;;;;;13.52;7.63;;;;;;;;;;5076201;28;20032;-86
2022/06/01 06:01:49;;;;;;;14.52;8.57;;;;;;;;;;5078201;28;20024;-92
2022/06/01 06:04:16;;;;;;;16.13;7.22;;;;;;;;;;5052467;28;20470;-76
2022/06/01 06:06:43;;;;;;;13.77;7.47;;;;;;;;;;5080926;28;20028;-77
2022/06/01 06:09:10;;;;;;;16.48;8.27;;;;;;;;;;5082453;28;20182;-78
2022/06/01 06:11:38;;;;;;;11.85;7.10;;;;;;;;;;5076693;28;20020;-75
2022/06/01 06:14:04;;;;;;;11.65;6.55;;;;;;;;;;5054364;28;20381;-77
2022/06/01 06:16:37;;;;;;;13.57;7.03;;;;;;;;;;5070697;28;20052;-81
2022/06/01 06:19:04;;;;;;;12.10;8.20;;;;;;;;;;5068168;28;20095;-77
2022/06/01 06:21:31;;;;;;;11.60;8.30;;;;;;;;;;5071394;28;20427;-80
2022/06/01 06:24:00;;;;;;;12.15;6.53;;;;;;;;;;5064409;28;20040;-76
2022/06/01 06:26:26;;;;;;;12.13;6.82;;;;;;;;;;5062363;28;20105;-77
2022/06/01 06:28:52;;;;;;;16.33;10.20;;;;;;;;;;5071941;28;20085;-77
2022/06/01 06:31:18;;;;;;;23.73;12.65;;;;;;;;;;5081474;28;20024;-80
2022/06/01 06:33:45;;;;;;;19.58;12.40;;;;;;;;;;5052727;28;20411;-83
2022/06/01 06:36:14;;;;;;;26.40;13.52;;;;;;;;;;5064814;28;20386;-81
2022/06/01 06:38:40;;;;;;;19.48;14.30;;;;;;;;;;5062646;28;20131;-81
2022/06/01 06:41:07;;;;;;;18.60;13.40;;;;;;;;;;5044855;28;20028;-82
2022/06/01 06:43:35;;;;;;;21.75;12.70;;;;;;;;;;5074206;28;20053;-75
2022/06/01 06:46:03;;;;;;;19.85;12.13;;;;;;;;;;5080111;28;20020;-74
2022/06/01 06:48:29;;;;;;;22.13;12.13;;;;;;;;;;5079996;28;20107;-80
2022/06/01 06:50:55;;;;;;;23.67;12.93;;;;;;;;;;5066232;28;20037;-83
2022/06/01 06:53:22;;;;;;;21.05;11.85;;;;;;;;;;5064208;28;20035;-77
2022/06/01 06:55:48;;;;;;;16.55;11.90;;;;;;;;;;5081026;28;20085;-76
2022/06/01 06:58:14;;;;;;;17.02;11.30;;;;;;;;;;5085390;28;20065;-75
2022/06/01 07:00:41;;;;;;;17.60;11.40;;;;;;;;;;5064890;28;20063;-75
2022/06/01 07:03:07;;;;;;;16.23;10.80;;;;;;;;;;5068937;28;20123;-79
2022/06/01 07:08:18;;;;;;;17.77;10.75;;;;;;;;;;5065945;28;20129;-76
2022/06/01 07:10:44;;;;;;;18.17;11.63;;;;;;;;;;5064867;28;20024;-78
2022/06/01 07:13:11;;;;;;;20.52;11.00;;;;;;;;;;5061894;28;20475;-77
2022/06/01 07:15:37;;;;;;;19.80;10.55;;;;;;;;;;5052267;28;20540;-80
2022/06/01 07:18:04;;;;;;;25.75;11.40;;;;;;;;;;5047698;28;20390;-79
2022/06/01 07:20:31;;;;;;;21.95;10.95;;;;;;;;;;5048740;28;20474;-81
2022/06/01 07:22:57;;;;;;;18.55;10.73;;;;;;;;;;5053907;28;20445;-82
2022/06/01 07:25:23;;;;;;;19.73;11.55;;;;;;;;;;5077958;28;20036;-78
2022/06/01 07:27:49;;;;;;;14.80;10.40;;;;;;;;;;5083529;28;20024;-80
2022/06/01 07:30:16;;;;;;;35.13;12.00;;;;;;;;;;5072086;28;20036;-77
2022/06/01 07:32:45;;;;;;;21.73;10.43;;;;;;;;;;5073034;28;20029;-80
2022/06/01 07:35:11;;;;;;;15.30;7.97;;;;;;;;;;5076949;28;20555;-75
2022/06/01 07:43:08;;;;;;;17.85;5.22;;;;;;;;;;5060571;28;20071;-76
2022/06/01 07:45:38;;;;;;;16.52;4.95;;;;;;;;;;5060875;28;20020;-76
2022/06/01 07:48:06;;;;;;;9.70;4.85;;;;;;;;;;5071461;28;20385;-78
2022/06/01 07:50:33;;;;;;;11.88;4.40;;;;;;;;;;5064704;28;20559;-80
2022/06/01 07:52:59;;;;;;;14.73;4.97;;;;;;;;;;5073767;28;20070;-81
2022/06/01 07:55:26;;;;;;;10.23;4.60;;;;;;;;;;5056144;28;20036;-76
2022/06/01 07:57:52;;;;;;;10.70;4.78;;;;;;;;;;5046737;28;20040;-79
2022/06/01 08:00:19;;;;;;;16.83;4.65;;;;;;;;;;5070091;28;20056;-78
2022/06/01 08:02:45;;;;;;;8.60;4.20;;;;;;;;;;5073463;28;20206;-83
2022/06/01 08:05:15;;;;;;;26.27;5.88;;;;;;;;;;5069541;28;20082;-79
2022/06/01 08:07:42;;;;;;;14.50;4.57;;;;;;;;;;5067394;28;20029;-82
2022/06/01 08:10:09;;;;;;;16.42;4.78;;;;;;;;;;5082397;28;20470;-76
2022/06/01 08:15:20;;;;;;;16.00;5.05;;;;;;;;;;5070541;28;20517;-84
2022/06/01 08:17:47;;;;;;;19.02;5.95;;;;;;;;;;5057485;28;20082;-73
2022/06/01 08:20:13;;;;;;;28.13;5.82;;;;;;;;;;5062139;28;20049;-73
2022/06/01 08:22:40;;;;;;;10.77;4.57;;;;;;;;;;5081106;28;20021;-73
2022/06/01 08:25:07;;;;;;;13.52;4.97;;;;;;;;;;5062826;28;20049;-80
2022/06/01 08:27:33;;;;;;;14.55;5.45;;;;;;;;;;5059139;28;20486;-79
2022/06/01 08:29:59;;;;;;;13.48;5.10;;;;;;;;;;5072753;28;20032;-79
2022/06/01 08:32:25;;;;;;;24.98;5.60;;;;;;;;;;5066812;28;20109;-79
2022/06/01 08:34:52;;;;;;;13.02;5.43;;;;;;;;;;5081172;28;20470;-78
2022/06/01 08:37:18;;;;;;;13.95;4.82;;;;;;;;;;5074531;28;20033;-78
2022/06/01 08:39:44;;;;;;;9.60;5.20;;;;;;;;;;5080597;28;20106;-77
2022/06/01 08:42:15;;;;;;;14.57;6.38;;;;;;;;;;5058410;28;20056;-78
2022/06/01 08:44:43;;;;;;;14.90;6.45;;;;;;;;;;5077480;28;20024;-77
2022/06/01 08:47:19;;;;;;;14.90;6.00;;;;;;;;;;5078465;28;20028;-79
2022/06/01 08:49:45;;;;;;;16.27;6.72;;;;;;;;;;5062599;28;20047;-78
2022/06/01 08:52:12;;;;;;;13.75;6.32;;;;;;;;;;5083858;28;20389;-77
2022/06/01 08:54:39;;;;;;;17.67;6.25;;;;;;;;;;5079898;28;20095;-76
2022/06/01 08:57:22;;;;;;;17.67;6.65;;;;;;;;;;5079889;28;20028;-76
2022/06/01 08:59:48;;;;;;;;;;;;;;;;;;5076617;28;20027;-75
2022/06/01 09:02:14;;;;;;;16.85;6.40;;;;;;;;;;5075356;28;20289;-77
2022/06/01 09:04:59;;;;;;;12.60;6.78;;;;;;;;;;5082091;28;20029;-79
2022/06/01 09:07:33;;;;;;;11.82;6.65;;;;;;;;;;5073544;28;20028;-83
2022/06/01 09:10:02;;;;;;;14.32;6.53;;;;;;;;;;5077884;28;20039;-77
2022/06/01 09:12:29;;;;;;;11.25;6.85;;;;;;;;;;5083260;28;20028;-77
2022/06/01 09:14:57;;;;;;;9.48;6.82;;;;;;;;;;5057498;28;20493;-77
2022/06/01 09:17:24;;;;;;;12.07;7.40;;;;;;;;;;5084663;28;20032;-79
2022/06/01 09:22:40;;;;;;;12.38;7.30;;;;;;;;;;5091759;28;20074;-76
2022/06/01 09:25:07;;;;;;;12.05;7.88;;;;;;;;;;5075106;28;20078;-78
2022/06/01 09:27:35;;;;;;;16.48;8.73;;;;;;;;;;5081363;28;20021;-78
2022/06/01 09:30:16;;;;;;;13.77;8.30;;;;;;;;;;5073356;28;20043;-77
2022/06/01 09:32:58;;;;;;;13.57;8.65;;;;;;;;;;5081861;28;20125;-74
2022/06/01 09:35:27;;;;;;;14.57;9.45;;;;;;;;;;5076391;28;20449;-78
2022/06/01 09:37:53;;;;;;;11.85;8.15;;;;;;;;;;5070608;28;20012;-77
2022/06/01 09:40:31;;;;;;;16.15;8.38;;;;;;;;;;5073698;28;20033;-77
2022/06/01 09:43:00;;;;;;;16.63;9.57;;;;;;;;;;5065950;28;20133;-77
2022/06/01 09:45:28;;;;;;;14.13;8.43;;;;;;;;;;5076506;28;20032;-76
2022/06/01 09:48:08;;;;;;;15.77;8.77;;;;;;;;;;5075373;28;20100;-83
2022/06/01 09:50:35;;;;;;;15.32;9.13;;;;;;;;;;5074112;28;20033;-77
2022/06/01 09:53:16;;;;;;;17.38;9.43;;;;;;;;;;5062702;28;20027;-79
2022/06/01 09:56:02;;;;;;;17.80;9.75;;;;;;;;;;5054378;28;20020;-78
2022/06/01 10:07:04;;;;;;;25.10;20.05;;;;;;;;;;5069400;28;20393;-74
2022/06/01 10:09:31;;;;;;;15.13;9.95;;;;;;;;;;5067539;28;20516;-75
2022/06/01 10:11:57;;;;;;;13.90;10.10;;;;;;;;;;5061453;28;20032;-74
2022/06/01 10:14:26;;;;;;;15.77;9.82;;;;;;;;;;5062953;28;20414;-77
2022/06/01 10:16:52;;;;;;;15.85;11.35;;;;;;;;;;5058714;28;20029;-76
2022/06/01 10:19:26;;;;;;;15.93;11.10;;;;;;;;;;5064735;28;20053;-76
2022/06/01 10:21:54;;;;;;;15.52;11.77;;;;;;;;;;5059053;28;20021;-77
2022/06/01 10:24:24;;;;;;;16.00;10.20;;;;;;;;;;5065261;28;20021;-79
2022/06/01 10:27:00;;;;;;;13.07;9.63;;;;;;;;;;5061128;28;20021;-79
2022/06/01 10:29:30;;;;;;;14.93;9.45;;;;;;;;;;5074375;28;20044;-84
2022/06/01 10:32:08;;;;;;;12.60;9.70;;;;;;;;;;5079047;28;20016;-74
2022/06/01 10:34:52;;;;;;;14.65;9.63;;;;;;;;;;5072437;28;20024;-77
2022/06/01 10:37:29;;;;;;;14.52;10.50;;;;;;;;;;5075142;28;20077;-79
2022/06/01 10:40:01;;;;;;;14.65;10.20;;;;;;;;;;5050851;28;20037;-79
2022/06/01 10:43:16;;;;;;;17.48;10.40;;;;;;;;;;5074319;28;20032;-79
2022/06/01 10:45:15;;;;;;;16.27;10.55;;;;;;;;;;5082343;28;20047;-81
2022/06/01 10:47:54;;;;;;;18.92;11.23;;;;;;;;;;5059754;28;20035;-76
2022/06/01 10:50:21;;;;;;;19.02;13.32;;;;;;;;;;5067135;28;20051;-85
2022/06/01 10:52:51;;;;;;;21.17;14.70;;;;;;;;;;5051104;28;20033;-85
2022/06/01 10:55:18;;;;;;;20.38;14.88;;;;;;;;;;5053488;28;20060;-78
2022/06/01 10:57:46;;;;;;;16.55;14.82;;;;;;;;;;5065114;28;20025;-77
2022/06/01 11:00:14;;;;;;;17.45;13.27;;;;;;;;;;5049724;28;20028;-80
2022/06/01 11:02:59;;;;;;;16.30;13.60;;;;;;;;;;5063807;28;20040;-77
2022/06/01 11:05:34;;;;;;;19.80;14.63;;;;;;;;;;5076158;28;20035;-79
2022/06/01 11:08:03;;;;;;;19.25;14.30;;;;;;;;;;5066498;28;20043;-79
2022/06/01 11:10:32;;;;;;;18.40;14.00;;;;;;;;;;5067621;28;20083;-81
2022/06/01 11:13:03;;;;;;;16.27;13.45;;;;;;;;;;5044287;28;20470;-77
2022/06/01 11:15:47;;;;;;;23.25;15.05;;;;;;;;;;5068400;28;20397;-77
2022/06/01 11:18:14;;;;;;;22.58;16.75;;;;;;;;;;5060843;28;20477;-80
2022/06/01 11:20:43;;;;;;;21.17;16.88;;;;;;;;;;5060588;28;20127;-75
2022/06/01 11:23:27;;;;;;;22.67;16.52;;;;;;;;;;5069603;28;20076;-75
2022/06/01 11:25:59;;;;;;;25.85;18.23;;;;;;;;;;5060859;28;20482;-76
2022/06/01 11:28:34;;;;;;;29.10;19.23;;;;;;;;;;5066069;28;20033;-77
2022/06/01 11:31:03;;;;;;;27.90;20.70;;;;;;;;;;5086682;28;20028;-77
2022/06/01 11:33:33;;;;;;;29.35;21.15;;;;;;;;;;5071133;28;20072;-78
2022/06/01 11:36:13;;;;;;;33.80;21.50;;;;;;;;;;5070276;28;20020;-74
2022/06/01 11:38:43;;;;;;;27.50;22.10;;;;;;;;;;5068902;28;20064;-74
2022/06/01 11:41:12;;;;;;;27.08;22.70;;;;;;;;;;5072649;28;20023;-79
2022/06/01 11:43:48;;;;;;;30.50;23.58;;;;;;;;;;5076806;28;20595;-75
2022/06/01 11:46:14;;;;;;;30.27;22.20;;;;;;;;;;5065214;28;20020;-76
2022/06/01 11:48:45;;;;;;;26.73;21.02;;;;;;;;;;5061830;28;20029;-76
2022/06/01 11:51:11;;;;;;;26.55;20.80;;;;;;;;;;5062327;28;20037;-76
2022/06/01 11:53:55;;;;;;;26.52;20.23;;;;;;;;;;5072395;28;20116;-77
2022/06/01 11:56:24;;;;;;;26.05;19.58;;;;;;;;;;5063729;28;20025;-78
2022/06/01 11:59:06;;;;;;;26.23;20.13;;;;;;;;;;5076092;28;20020;-79
2022/06/01 12:01:41;;;;;;;23.95;19.02;;;;;;;;;;5072812;28;20497;-80
2022/06/01 12:04:26;;;;;;;26.95;19.27;;;;;;;;;;5068108;28;20478;-77
2022/06/01 12:07:01;;;;;;;24.35;19.65;;;;;;;;;;5056224;28;20525;-80
2022/06/01 12:09:39;;;;;;;29.83;19.25;;;;;;;;;;5055990;28;20115;-78
2022/06/01 12:12:05;;;;;;;25.40;18.30;;;;;;;;;;5065513;28;20471;-80
2022/06/01 12:14:33;;;;;;;22.50;16.90;;;;;;;;;;5075335;28;20100;-79
2022/06/01 12:17:14;;;;;;;22.15;17.20;;;;;;;;;;5057957;28;20021;-76
2022/06/01 12:19:45;;;;;;;23.65;17.65;;;;;;;;;;5075626;28;20048;-78
2022/06/01 12:28:30;;;;;;;22.15;16.42;;;;;;;;;;5075470;28;20025;-78
2022/06/01 12:30:47;;;;;;;22.98;15.32;;;;;;;;;;5075984;28;20513;-79
2022/06/01 12:33:14;;;;;;;19.33;14.15;;;;;;;;;;5074971;28;20094;-79
2022/06/01 12:35:45;;;;;;;25.95;16.63;;;;;;;;;;5057681;28;20024;-78
2022/06/01 12:38:19;;;;;;;21.60;16.42;;;;;;;;;;5075795;28;20021;-80
2022/06/01 12:41:14;;;;;;;22.63;15.73;;;;;;;;;;5074283;28;20033;-80
2022/06/01 12:43:45;;;;;;;20.25;15.00;;;;;;;;;;5028295;28;20038;-77
2022/06/01 12:46:26;;;;;;;24.65;15.23;;;;;;;;;;5013601;28;20034;-80
2022/06/01 12:48:52;;;;;;;36.22;24.35;;;;;;;;;;5013435;28;20042;-80
2022/06/01 12:51:19;;;;;;;20.90;16.05;;;;;;;;;;5030593;28;20549;-76
2022/06/01 12:53:47;;;;;;;24.05;14.80;;;;;;;;;;5032332;28;20040;-77
2022/06/01 12:56:16;;;;;;;17.17;13.38;;;;;;;;;;5018125;28;20029;-78
2022/06/01 12:58:44;;;;;;;19.95;13.27;;;;;;;;;;5032971;28;20498;-77
2022/06/01 13:01:13;;;;;;;20.08;14.15;;;;;;;;;;5014735;28;20410;-78
2022/06/01 13:03:52;;;;;;;23.83;14.25;;;;;;;;;;5020382;28;20018;-78
2022/06/01 13:06:20;;;;;;;20.52;13.82;;;;;;;;;;5014218;28;20167;-78
2022/06/01 13:08:55;;;;;;;23.45;14.68;;;;;;;;;;5013229;28;20113;-78
2022/06/01 13:11:23;;;;;;;20.08;14.18;;;;;;;;;;5013818;28;20503;-78
2022/06/01 13:13:51;;;;;;;21.27;14.38;;;;;;;;;;5013033;28;20046;-78
2022/06/01 13:16:17;;;;;;;22.60;15.07;;;;;;;;;;5022298;28;20452;-78
2022/06/01 13:18:45;;;;;;;21.75;14.82;;;;;;;;;;5032679;28;20548;-78
2022/06/01 13:21:29;;;;;;;18.98;12.75;;;;;;;;;;5054003;28;20124;-78
2022/06/01 13:24:03;;;;;;;19.88;12.65;;;;;;;;;;5054725;28;20112;-77
2022/06/01 13:26:35;;;;;;;19.60;12.30;;;;;;;;;;5061513;28;20386;-77
2022/06/01 13:29:09;;;;;;;19.75;11.75;;;;;;;;;;5074299;28;20028;-78
2022/06/01 13:31:37;;;;;;;17.88;11.48;;;;;;;;;;5074500;28;20107;-78
2022/06/01 13:34:05;;;;;;;17.13;12.32;;;;;;;;;;5074201;28;20115;-76
2022/06/01 13:36:36;;;;;;;19.23;12.15;;;;;;;;;;5073815;28;20020;-77
2022/06/01 13:39:12;;;;;;;20.08;13.00;;;;;;;;;;5074143;28;20089;-78
2022/06/01 13:41:39;;;;;;;16.98;11.85;;;;;;;;;;5062853;28;20029;-79
2022/06/01 13:44:09;;;;;;;16.98;11.07;;;;;;;;;;5068944;28;20031;-81
2022/06/01 13:46:48;;;;;;;14.68;10.98;;;;;;;;;;5048379;28;20029;-82
2022/06/01 13:49:15;;;;;;;17.42;10.52;;;;;;;;;;5059133;28;20044;-74
2022/06/01 13:51:43;;;;;;;17.92;10.40;;;;;;;;;;5056755;28;20124;-77
2022/06/01 13:54:29;;;;;;;18.50;10.52;;;;;;;;;;5076047;28;20131;-77
2022/06/01 13:57:14;;;;;;;18.40;10.30;;;;;;;;;;5065224;28;20103;-81
2022/06/01 13:59:50;;;;;;;15.32;10.20;;;;;;;;;;5079813;28;20043;-86
2022/06/01 14:02:22;;;;;;;14.15;10.07;;;;;;;;;;5055752;28;20539;-81
2022/06/01 14:04:50;;;;;;;15.30;9.20;;;;;;;;;;5073953;28;20524;-78
2022/06/01 14:07:20;;;;;;;18.50;9.25;;;;;;;;;;5075493;28;20485;-74
2022/06/01 14:09:52;;;;;;;15.52;8.93;;;;;;;;;;5058554;28;20423;-75
2022/06/01 14:12:19;;;;;;;11.35;7.65;;;;;;;;;;5056593;28;20032;-75
2022/06/01 14:14:46;;;;;;;18.15;8.48;;;;;;;;;;5058372;28;20040;-75
2022/06/01 14:17:13;;;;;;;13.18;8.13;;;;;;;;;;5065373;28;20417;-75
2022/06/01 14:19:39;;;;;;;14.82;9.00;;;;;;;;;;5053916;28;20094;-74
2022/06/01 14:22:06;;;;;;;12.45;8.80;;;;;;;;;;5054611;28;20033;-76
2022/06/01 14:30:05;;;;;;;15.65;10.50;;;;;;;;;;5068561;28;20108;-77
2022/06/01 14:32:31;;;;;;;17.52;9.65;;;;;;;;;;5057704;28;20032;-85
2022/06/01 14:34:57;;;;;;;14.57;9.02;;;;;;;;;;5053368;28;20086;-80
2022/06/01 14:37:23;;;;;;;15.43;9.15;;;;;;;;;;5064418;28;20436;-74
2022/06/01 14:39:49;;;;;;;16.30;9.30;;;;;;;;;;5072795;28;20099;-75
2022/06/01 14:42:15;;;;;;;11.95;8.93;;;;;;;;;;5069851;28;20035;-76
2022/06/01 14:44:41;;;;;;;12.23;8.38;;;;;;;;;;5064732;28;20103;-83
2022/06/01 14:47:07;;;;;;;11.50;8.13;;;;;;;;;;5080799;28;20028;-85
2022/06/01 14:49:33;;;;;;;12.50;7.95;;;;;;;;;;5065779;28;20054;-76
2022/06/01 14:52:02;;;;;;;14.20;8.50;;;;;;;;;;5067511;28;20029;-75
2022/06/01 14:54:29;;;;;;;15.45;8.45;;;;;;;;;;5064859;28;20484;-79
2022/06/01 14:56:55;;;;;;;11.85;7.68;;;;;;;;;;5063982;28;20228;-80
2022/06/01 14:59:21;;;;;;;21.35;9.63;;;;;;;;;;5077193;28;20031;-79
2022/06/01 15:04:48;;;;;;;13.77;9.40;;;;;;;;;;5108410;22;20041;-81
2022/06/01 15:07:15;;;;;;;16.67;10.32;;;;;;;;;;5043558;28;20025;-79
2022/06/01 15:09:41;;;;;;;16.85;10.50;;;;;;;;;;5033038;28;20052;-81
2022/06/01 15:12:08;;;;;;;19.40;11.57;;;;;;;;;;5033053;28;20218;-80
2022/06/01 15:14:36;;;;;;;18.38;10.82;;;;;;;;;;5031163;28;20356;-81
2022/06/01 15:17:03;;;;;;;22.00;10.13;;;;;;;;;;5046818;28;20489;-87
2022/06/01 15:19:31;;;;;;;17.02;9.55;;;;;;;;;;5052112;28;20071;-86
2022/06/01 15:21:57;;;;;;;12.10;8.20;;;;;;;;;;5052545;28;20025;-86
2022/06/01 15:24:23;;;;;;;18.77;9.40;;;;;;;;;;5052065;28;20028;-85
2022/06/01 15:26:51;;;;;;;16.23;9.18;;;;;;;;;;5050790;28;20116;-85
2022/06/01 15:40:21;;;;;;;17.08;9.52;;;;;;;;;;5052344;28;20044;-86
2022/06/01 15:42:48;;;;;;;14.05;9.82;;;;;;;;;;5043794;28;20025;-87
2022/06/01 15:45:15;;;;;;;17.42;9.93;;;;;;;;;;5038529;28;20104;-87